Time;durP1;ratioP1;P1;durP2;ratioP2;P2;SDS_P1;SDS_P2;PMS_P1;PMS_P2;Temp;Humidity;BMP_temperature;BMP_pressure;BME280_temperature;BME280_humidity;BME280_pressure;Samples;Min_cycle;Max_cycle;Signal;HPM_P1;HPM_P2
2022/02/14 00:00:46;;;;;;;4.60;3.30;;;7.10;46.10;;;7.09;42.19;96950.50;4949450;29;20051;-36
2022/02/14 00:03:14;;;;;;;5.00;3.40;;;7.10;46.30;;;7.09;42.51;96942.56;4948698;28;20061;-36
2022/02/14 00:05:42;;;;;;;5.87;3.73;;;7.10;45.50;;;7.08;41.86;96945.34;4948991;29;20051;-36
2022/02/14 00:08:10;;;;;;;5.83;3.57;;;7.20;45.10;;;7.12;42.13;96940.59;4950410;29;20043;-36
2022/02/14 00:10:39;;;;;;;8.67;3.27;;;7.20;45.60;;;7.19;42.20;96941.59;4949967;28;20069;-36
2022/02/14 00:13:06;;;;;;;5.67;3.03;;;7.20;45.50;;;7.17;41.51;96925.84;4948287;29;20264;-36
2022/02/14 00:15:34;;;;;;;4.37;3.10;;;7.20;44.80;;;7.16;40.37;96936.63;4949732;29;20352;-36
2022/02/14 00:18:02;;;;;;;3.87;3.23;;;7.30;43.80;;;7.20;40.70;96917.63;4933127;29;20357;-36
2022/02/14 00:20:30;;;;;;;5.10;2.67;;;7.30;44.30;;;7.25;41.40;96917.13;4949722;29;20493;-36
2022/02/14 00:22:58;;;;;;;6.33;3.07;;;7.30;44.60;;;7.26;40.47;96921.44;4950659;29;20514;-36
2022/02/14 00:25:26;;;;;;;3.90;2.70;;;7.30;43.90;;;7.29;40.02;96918.50;4949135;29;20058;-36
2022/02/14 00:27:54;;;;;;;4.20;3.17;;;7.30;42.70;;;7.34;40.49;96915.38;4948812;29;20047;-36
2022/02/14 00:30:22;;;;;;;4.27;2.70;;;7.30;43.30;;;7.32;39.72;96912.06;4949281;29;20047;-36
2022/02/14 00:32:50;;;;;;;4.80;3.17;;;7.30;43.10;;;7.33;40.18;96908.41;4950252;28;20249;-36
2022/02/14 00:35:18;;;;;;;5.70;2.67;;;7.30;43.20;;;7.31;39.31;96908.56;4948462;29;20069;-36
2022/02/14 00:37:48;;;;;;;4.33;2.60;;;7.40;42.40;;;7.30;39.60;96909.56;4948559;29;20047;-36
2022/02/14 00:40:16;;;;;;;3.67;2.67;;;7.40;42.00;;;7.30;40.04;96914.84;4949941;29;20058;-36
2022/02/14 00:42:45;;;;;;;4.30;2.70;;;7.40;42.60;;;7.33;39.32;96900.44;4948801;29;20047;-36
2022/02/14 00:45:13;;;;;;;4.50;2.83;;;7.40;42.20;;;7.28;38.79;96891.16;4950059;28;20383;-36
2022/02/14 00:47:40;;;;;;;3.77;2.50;;;7.40;40.80;;;7.33;39.10;96900.44;4949810;29;20058;-36
2022/02/14 00:50:11;;;;;;;5.20;3.47;;;7.40;41.40;;;7.37;38.74;96896.53;4949054;29;20051;-36
2022/02/14 00:52:40;;;;;;;3.10;2.20;;;7.40;41.10;;;7.38;39.01;96882.28;4949696;28;20065;-36
2022/02/14 00:55:14;;;;;;;4.20;3.20;;;7.40;41.10;;;7.37;36.60;96886.75;4948797;29;20047;-36
2022/02/14 00:57:43;;;;;;;6.87;2.83;;;7.50;39.40;;;7.40;37.97;96880.31;4948344;28;20278;-36
2022/02/14 01:00:14;;;;;;;4.50;2.60;;;7.50;40.40;;;7.45;38.86;96873.53;4948272;29;20055;-36
2022/02/14 01:02:42;;;;;;;4.57;2.50;;;7.50;41.00;;;7.45;38.49;96886.78;4948976;29;20058;-36
2022/02/14 01:05:11;;;;;;;4.73;3.13;;;7.40;41.10;;;7.48;38.64;96883.81;4948853;28;20050;-36
2022/02/14 01:07:39;;;;;;;3.73;2.50;;;7.50;41.40;;;7.47;37.98;96878.69;4949734;29;20375;-36
2022/02/14 01:10:10;;;;;;;4.83;2.77;;;7.50;40.80;;;7.48;38.46;96880.31;4947148;29;20062;-36
2022/02/14 01:12:40;;;;;;;5.63;3.03;;;7.50;40.90;;;7.51;38.88;96874.72;4948082;28;20252;-36
2022/02/14 01:15:10;;;;;;;5.07;2.53;;;7.50;41.00;;;7.53;38.19;96878.03;4948086;29;20045;-36
2022/02/14 01:17:38;;;;;;;4.00;2.50;;;7.50;40.80;;;7.53;38.38;96879.84;4947916;29;20065;-36
2022/02/14 01:20:10;;;;;;;5.10;3.00;;;7.50;40.70;;;7.56;38.78;96864.47;4948440;29;20053;-36
2022/02/14 01:22:39;;;;;;;4.97;2.40;;;7.60;41.20;;;7.55;38.50;96868.09;4947901;28;20341;-36
2022/02/14 01:25:09;;;;;;;3.10;2.47;;;7.50;40.50;;;7.55;39.33;96868.09;4947526;29;20365;-36
2022/02/14 01:27:38;;;;;;;6.20;2.70;;;7.50;41.40;;;7.55;38.62;96860.16;4948686;29;20051;-36
2022/02/14 01:30:07;;;;;;;4.37;3.60;;;7.50;41.70;;;7.56;38.70;96855.69;4949351;28;20053;-36
2022/02/14 01:32:35;;;;;;;3.63;2.17;;;7.50;41.50;;;7.53;38.52;96856.03;4948723;29;20047;-36
2022/02/14 01:35:05;;;;;;;3.47;2.33;;;7.40;40.70;;;7.49;37.88;96848.38;4947403;28;20069;-36
2022/02/14 01:37:33;;;;;;;4.83;2.47;;;7.50;40.30;;;7.53;39.03;96850.72;4948122;29;20051;-36
2022/02/14 01:40:01;;;;;;;6.07;2.83;;;7.40;41.10;;;7.55;38.50;96846.09;4948321;29;20399;-36
2022/02/14 01:42:29;;;;;;;4.10;2.40;;;7.50;41.30;;;7.57;38.62;96833.50;4948004;29;20338;-36
2022/02/14 01:44:59;;;;;;;4.40;2.40;;;7.50;41.00;;;7.56;38.33;96840.63;4947967;29;20265;-36
2022/02/14 01:47:27;;;;;;;4.77;2.40;;;7.50;40.80;;;7.53;37.56;96827.72;4948676;29;20055;-36
2022/02/14 01:49:56;;;;;;;3.40;2.03;;;7.50;40.10;;;7.56;38.21;96840.63;4947164;29;20215;-36
2022/02/14 01:52:24;;;;;;;3.97;2.30;;;7.50;40.00;;;7.56;38.01;96830.03;4947846;29;20054;-36
2022/02/14 01:54:52;;;;;;;3.50;1.90;;;7.50;40.40;;;7.56;37.74;96832.69;4947316;29;20521;-36
2022/02/14 01:57:25;;;;;;;4.20;2.20;;;7.50;39.70;;;7.59;37.63;96827.06;4947516;29;20327;-36
2022/02/14 01:59:53;;;;;;;3.30;2.50;;;7.50;39.90;;;7.59;37.82;96820.94;4949402;28;20265;-36
2022/02/14 02:02:21;;;;;;;5.83;3.00;;;7.50;39.80;;;7.61;38.00;96821.59;4948377;29;20055;-36
2022/02/14 02:04:49;;;;;;;3.70;2.43;;;7.50;39.90;;;7.61;37.31;96811.00;4963073;28;20082;-36
2022/02/14 02:07:17;;;;;;;3.07;2.37;;;7.60;38.80;;;7.63;37.30;96815.13;4963040;28;20051;-36
2022/02/14 02:09:45;;;;;;;4.00;2.43;;;7.60;40.00;;;7.66;37.98;96812.19;4947535;29;20054;-36
2022/02/14 02:12:22;;;;;;;3.00;2.27;;;7.60;39.90;;;7.67;37.08;96805.88;4948294;29;20047;-36
2022/02/14 02:14:57;;;;;;;3.93;2.30;;;7.60;39.30;;;7.66;36.39;96808.69;4948740;28;20067;-37
2022/02/14 02:17:33;;;;;;;4.60;2.60;;;7.60;38.30;;;7.67;37.12;96813.00;4949007;29;20077;-37
2022/02/14 02:20:07;;;;;;;3.87;2.30;;;7.60;38.80;;;7.66;36.48;96790.16;4947031;29;20069;-37
2022/02/14 02:22:36;;;;;;;3.50;2.30;;;7.60;39.00;;;7.66;36.76;96812.19;4948920;29;20047;-36
2022/02/14 02:25:05;;;;;;;3.20;2.43;;;7.60;38.80;;;7.69;36.59;96801.22;4948229;28;20093;-36
2022/02/14 02:27:33;;;;;;;4.63;2.20;;;7.60;38.70;;;7.69;36.92;96797.75;4952771;28;20063;-36
2022/02/14 02:30:06;;;;;;;3.77;2.10;;;7.60;38.60;;;7.66;35.70;96788.34;4951766;29;20055;-36
2022/02/14 02:32:35;;;;;;;3.47;1.83;;;7.60;37.90;;;7.67;36.63;96789.97;4951499;29;20043;-36
2022/02/14 02:35:06;;;;;;;2.93;1.83;;;7.60;38.00;;;7.70;36.74;96788.84;4952044;29;20233;-36
2022/02/14 02:37:34;;;;;;;2.20;2.00;;;7.60;38.50;;;7.72;36.87;96781.56;4951623;29;20054;-36
2022/02/14 02:40:04;;;;;;;3.53;2.00;;;7.60;38.70;;;7.73;36.46;96774.41;4951762;28;20257;-36
2022/02/14 02:42:32;;;;;;;4.77;2.23;;;7.60;39.00;;;7.71;36.26;96776.41;4951465;29;20325;-36
2022/02/14 02:45:00;;;;;;;4.70;2.23;;;7.60;38.20;;;7.71;36.23;96771.13;4965629;28;20373;-36
2022/02/14 02:47:28;;;;;;;3.00;2.10;;;7.60;38.10;;;7.72;37.05;96768.31;4952143;28;20059;-36
2022/02/14 02:49:56;;;;;;;3.43;2.00;;;7.60;38.80;;;7.68;36.14;96762.50;4950857;29;20055;-36
2022/02/14 02:52:24;;;;;;;2.63;1.90;;;7.60;38.30;;;7.60;36.35;96751.91;4950967;29;20226;-36
2022/02/14 02:54:55;;;;;;;5.23;2.00;;;7.50;38.00;;;7.62;36.47;96754.41;4950430;29;20069;-36
2022/02/14 02:57:24;;;;;;;4.00;2.07;;;7.50;38.60;;;7.61;36.42;96755.38;4951653;29;20049;-36
2022/02/14 02:59:53;;;;;;;5.93;1.97;;;7.40;38.70;;;7.59;37.04;96752.88;4950458;29;20049;-36
2022/02/14 03:02:21;;;;;;;3.97;2.17;;;7.40;38.90;;;7.61;37.12;96750.91;4951313;28;20077;-36
2022/02/14 03:04:49;;;;;;;3.40;2.10;;;7.50;39.00;;;7.59;36.37;96749.41;4951438;28;20055;-36
2022/02/14 03:07:17;;;;;;;6.03;2.30;;;7.40;38.60;;;7.58;36.68;96758.34;4951213;28;20135;-36
2022/02/14 03:09:47;;;;;;;4.03;2.20;;;7.40;38.80;;;7.57;36.89;96744.28;4951710;28;20047;-36
2022/02/14 03:12:20;;;;;;;3.83;2.10;;;7.40;39.00;;;7.55;36.66;96751.56;4951057;29;20047;-36
2022/02/14 03:14:49;;;;;;;2.73;2.37;;;7.40;38.90;;;7.54;36.79;96749.06;4950784;29;20290;-35
2022/02/14 03:17:18;;;;;;;3.17;2.00;;;7.40;38.50;;;7.54;36.72;96752.56;4949871;29;20047;-36
2022/02/14 03:19:45;;;;;;;3.77;2.20;;;7.40;39.10;;;7.53;36.39;96745.59;4950739;29;20341;-36
2022/02/14 03:22:13;;;;;;;3.93;2.10;;;7.40;38.70;;;7.54;36.82;96749.91;4950819;29;20047;-36
2022/02/14 03:24:41;;;;;;;4.03;2.40;;;7.40;38.80;;;7.56;37.08;96741.78;4950938;29;20061;-36
2022/02/14 03:27:09;;;;;;;3.20;1.90;;;7.40;39.00;;;7.54;36.64;96744.63;4951131;29;20069;-35
2022/02/14 03:29:37;;;;;;;4.03;2.43;;;7.30;39.00;;;7.47;36.09;96741.78;4951642;28;20059;-35
2022/02/14 03:32:05;;;;;;;4.43;2.57;;;7.30;38.60;;;7.47;36.98;96749.72;4948058;29;20263;-36
2022/02/14 03:34:33;;;;;;;5.03;2.67;;;7.30;38.90;;;7.45;36.69;96751.72;4949945;29;20059;-35
2022/02/14 03:37:01;;;;;;;3.97;1.97;;;7.20;38.60;;;7.40;36.47;96748.72;4950532;28;20043;-36
2022/02/14 03:39:28;;;;;;;3.03;2.03;;;7.20;37.60;;;7.33;35.89;96744.22;4950729;29;20047;-36
2022/02/14 03:41:56;;;;;;;4.00;2.40;;;7.10;38.20;;;7.33;36.63;96747.72;4950107;28;20253;-35
2022/02/14 03:44:24;;;;;;;3.83;2.37;;;7.10;38.50;;;7.32;36.27;96747.88;4949951;29;20779;-35
2022/02/14 03:46:53;;;;;;;3.63;2.10;;;7.10;38.50;;;7.34;36.61;96737.97;4950123;29;20354;-36
2022/02/14 03:49:20;;;;;;;3.43;1.77;;;7.10;38.50;;;7.34;36.46;96743.25;4950478;28;20055;-36
2022/02/14 03:51:48;;;;;;;6.47;2.17;;;7.10;38.90;;;7.32;36.11;96737.28;4950493;29;20053;-35
2022/02/14 03:54:16;;;;;;;3.57;2.47;;;7.10;38.30;;;7.29;36.05;96733.16;4949508;29;20051;-36
2022/02/14 03:56:44;;;;;;;3.40;2.07;;;7.10;38.30;;;7.30;36.61;96732.16;4951390;28;20053;-35
2022/02/14 03:59:12;;;;;;;4.07;1.90;;;7.10;38.40;;;7.30;36.07;96724.22;4948202;29;20050;-36
2022/02/14 04:01:40;;;;;;;3.20;2.10;;;7.10;37.90;;;7.22;34.61;96727.66;4948895;29;20065;-36
2022/02/14 04:04:08;;;;;;;2.60;1.67;;;7.10;37.10;;;7.26;36.13;96726.34;4948799;29;20445;-35
2022/02/14 04:06:36;;;;;;;2.47;1.80;;;7.10;37.60;;;7.25;35.86;96735.31;4950349;28;20065;-36
2022/02/14 04:09:04;;;;;;;4.43;2.10;;;7.20;37.40;;;7.27;35.67;96721.91;4949785;28;20054;-35
2022/02/14 04:11:31;;;;;;;3.23;2.23;;;7.10;37.40;;;7.26;35.73;96728.19;4949093;29;20039;-35
2022/02/14 04:13:59;;;;;;;3.17;2.00;;;7.10;37.70;;;7.26;35.75;96722.88;4948658;29;20277;-36
2022/02/14 04:16:27;;;;;;;3.90;1.60;;;7.10;38.00;;;7.28;36.48;96721.72;4950147;29;20043;-35
2022/02/14 04:18:55;;;;;;;3.17;1.70;;;7.10;38.50;;;7.30;36.82;96722.38;4950894;28;20063;-35
2022/02/14 04:21:22;;;;;;;5.77;2.00;;;7.10;38.90;;;7.29;36.45;96727.88;4949798;28;20065;-36
2022/02/14 04:23:50;;;;;;;4.00;2.03;;;7.00;38.70;;;7.29;36.74;96714.63;4948447;28;20051;-36
2022/02/14 04:26:18;;;;;;;3.67;2.00;;;7.00;38.90;;;7.27;36.98;96722.72;4947799;29;20057;-35
2022/02/14 04:28:46;;;;;;;3.50;1.90;;;7.00;39.20;;;7.24;36.88;96715.09;4949075;29;20051;-36
2022/02/14 04:31:14;;;;;;;3.50;2.10;;;7.00;39.60;;;7.25;37.48;96705.34;4950077;29;20051;-36
2022/02/14 04:33:41;;;;;;;3.27;2.17;;;7.00;39.90;;;7.17;36.65;96714.09;4948545;29;20044;-35
2022/02/14 04:36:12;;;;;;;3.50;2.00;;;6.90;39.50;;;7.16;37.34;96712.44;4948545;29;20062;-36
2022/02/14 04:38:39;;;;;;;3.87;2.20;;;6.90;39.80;;;7.14;37.55;96700.38;4950194;29;20351;-35
2022/02/14 04:41:07;;;;;;;2.43;1.93;;;6.80;40.40;;;7.08;37.55;96707.13;4949029;28;20249;-35
2022/02/14 04:43:35;;;;;;;5.90;2.87;;;6.70;40.90;;;7.02;37.40;96707.78;4949476;29;20055;-36
2022/02/14 04:46:03;;;;;;;4.20;1.90;;;6.60;41.00;;;6.95;37.86;96704.13;4948839;28;20333;-35
2022/02/14 04:48:32;;;;;;;2.90;1.80;;;6.60;41.60;;;6.89;37.37;96695.00;4949740;28;20051;-36
2022/02/14 04:50:59;;;;;;;3.80;2.30;;;6.60;40.80;;;6.87;37.14;96695.16;4948866;28;20054;-36
2022/02/14 04:53:27;;;;;;;4.97;2.27;;;6.50;40.80;;;6.82;36.88;96705.41;4948946;29;20066;-35
2022/02/14 04:55:55;;;;;;;3.70;2.27;;;6.60;39.80;;;6.85;37.60;96701.63;4949231;29;20043;-36
2022/02/14 04:58:23;;;;;;;5.67;2.23;;;6.60;40.40;;;6.84;37.70;96692.00;4949649;29;20051;-36
2022/02/14 05:00:51;;;;;;;5.80;2.13;;;6.60;40.50;;;6.81;37.02;96695.81;4949934;29;20376;-35
2022/02/14 05:03:19;;;;;;;4.50;2.23;;;6.60;40.00;;;6.83;37.02;96693.84;4948505;29;20050;-36
2022/02/14 05:05:47;;;;;;;4.63;2.20;;;6.60;39.90;;;6.86;37.04;96692.69;4948817;28;20051;-36
2022/02/14 05:08:14;;;;;;;3.80;2.07;;;6.60;40.10;;;6.82;36.74;96686.06;4949646;29;20054;-35
2022/02/14 05:10:42;;;;;;;5.50;2.07;;;6.60;39.40;;;6.83;37.00;96685.91;4949092;29;20368;-35
2022/02/14 05:13:10;;;;;;;3.43;2.10;;;6.60;39.50;;;6.85;37.17;96688.38;4948272;29;20051;-36
2022/02/14 05:15:38;;;;;;;4.93;2.40;;;6.70;39.60;;;6.84;36.90;96682.28;4949229;29;20043;-36
2022/02/14 05:18:05;;;;;;;2.97;1.90;;;6.70;39.40;;;6.84;36.63;96676.13;4948999;29;20051;-35
2022/02/14 05:20:33;;;;;;;2.90;1.93;;;6.70;39.40;;;6.80;37.25;96678.28;4948975;28;20364;-35
2022/02/14 05:23:02;;;;;;;9.17;5.40;;;6.70;39.20;;;6.83;36.96;96675.31;4948183;29;20372;-36
2022/02/14 05:25:30;;;;;;;4.97;3.30;;;6.60;39.70;;;6.83;37.02;96680.59;4948896;29;20064;-36
2022/02/14 05:27:58;;;;;;;5.67;2.40;;;6.70;39.70;;;6.85;37.23;96683.91;4947123;28;20510;-36
2022/02/14 05:30:26;;;;;;;4.63;2.50;;;6.70;39.40;;;6.83;37.50;96675.31;4948658;29;20043;-36
2022/02/14 05:32:54;;;;;;;5.33;2.47;;;6.60;39.60;;;6.80;36.93;96675.63;4949309;29;20052;-36
2022/02/14 05:35:21;;;;;;;4.30;2.53;;;6.60;39.40;;;6.75;37.42;96674.47;4948547;29;20341;-37
2022/02/14 05:37:49;;;;;;;5.97;3.20;;;6.60;38.90;;;6.75;36.87;96666.53;4948018;29;20053;-37
2022/02/14 05:40:18;;;;;;;3.90;2.70;;;6.60;39.50;;;6.72;36.64;96664.22;4948992;28;20282;-37
2022/02/14 05:42:46;;;;;;;4.23;2.80;;;6.60;38.80;;;6.70;37.28;96664.38;4948371;29;20051;-37
2022/02/14 05:45:14;;;;;;;5.43;2.57;;;6.50;39.70;;;6.67;37.30;96656.78;4948038;29;20051;-37
2022/02/14 05:47:41;;;;;;;6.53;3.67;;;6.60;39.60;;;6.63;36.69;96665.97;4948106;29;20065;-36
2022/02/14 05:50:10;;;;;;;4.23;2.27;;;6.50;39.60;;;6.58;36.96;96660.38;4947666;28;20055;-37
2022/02/14 05:52:41;;;;;;;6.87;3.63;;;6.50;39.10;;;6.59;37.32;96664.66;4947141;29;20047;-36
2022/02/14 05:55:09;;;;;;;6.50;2.90;;;6.50;39.60;;;6.52;37.20;96663.66;4948632;28;20051;-36
2022/02/14 05:57:38;;;;;;;6.13;2.60;;;6.50;39.30;;;6.54;36.86;96662.50;4948204;29;20051;-37
2022/02/14 06:00:09;;;;;;;9.70;4.97;;;6.50;39.50;;;6.57;37.54;96664.00;4949311;28;20051;-37
2022/02/14 06:02:37;;;;;;;4.43;2.50;;;6.50;39.80;;;6.57;37.27;96656.06;4951865;29;20396;-37
2022/02/14 06:05:06;;;;;;;6.07;2.97;;;6.50;39.90;;;6.60;37.48;96666.31;4950452;29;20063;-37
2022/02/14 06:07:34;;;;;;;4.40;2.40;;;6.50;39.90;;;6.58;37.25;96655.91;4952043;28;20062;-37
2022/02/14 06:10:02;;;;;;;6.37;2.97;;;6.50;39.80;;;6.59;37.10;96662.00;4951442;29;20059;-36
2022/02/14 06:12:30;;;;;;;6.00;3.97;;;6.50;39.80;;;6.57;36.96;96667.47;4951286;28;20361;-36
2022/02/14 06:15:00;;;;;;;6.10;3.30;;;6.50;39.90;;;6.53;36.86;96666.13;4951490;28;20055;-36
2022/02/14 06:17:28;;;;;;;3.30;2.63;;;6.50;39.80;;;6.57;37.36;96661.34;4952334;28;20055;-36
2022/02/14 06:19:55;;;;;;;3.53;2.13;;;6.50;40.20;;;6.55;37.52;96671.25;4951849;29;20042;-36
2022/02/14 06:22:25;;;;;;;2.93;1.83;;;6.50;39.90;;;6.54;37.01;96675.72;4951084;28;20287;-36
2022/02/14 06:24:53;;;;;;;4.07;2.20;;;6.50;40.10;;;6.52;37.87;96684.81;4951201;29;20055;-36
2022/02/14 06:27:20;;;;;;;6.63;2.63;;;6.50;39.80;;;6.55;37.56;96680.00;4951862;29;20053;-36
2022/02/14 06:29:48;;;;;;;6.70;3.60;;;6.50;39.90;;;6.57;37.79;96688.63;4951321;29;20055;-36
2022/02/14 06:32:16;;;;;;;9.07;4.33;;;6.50;39.70;;;6.59;37.41;96694.59;4950689;29;20047;-36
2022/02/14 06:34:44;;;;;;;5.63;2.50;;;6.50;40.40;;;6.58;37.63;96698.22;4951566;29;20357;-36
2022/02/14 06:37:12;;;;;;;5.87;3.07;;;6.50;39.80;;;6.60;37.86;96703.34;4952942;29;20052;-36
2022/02/14 06:39:40;;;;;;;10.07;5.60;;;6.50;40.20;;;6.60;37.40;96701.53;4950216;29;20054;-36
2022/02/14 06:42:08;;;;;;;6.17;2.63;;;6.50;40.20;;;6.56;37.34;96709.94;4951295;29;20372;-36
2022/02/14 06:44:36;;;;;;;8.43;5.27;;;6.50;40.20;;;6.59;37.36;96712.25;4950723;29;20260;-36
2022/02/14 06:47:04;;;;;;;11.63;7.80;;;6.50;40.60;;;6.57;37.36;96708.94;4951647;28;20063;-38
2022/02/14 06:49:32;;;;;;;4.80;4.00;;;6.50;40.60;;;6.54;37.88;96704.81;4950999;29;20055;-38
2022/02/14 06:52:00;;;;;;;5.07;2.80;;;6.50;40.60;;;6.50;38.44;96714.06;4950877;29;20055;-37
2022/02/14 06:54:27;;;;;;;4.00;2.80;;;6.40;40.90;;;6.46;38.18;96713.53;4951263;29;20293;-37
2022/02/14 06:56:57;;;;;;;3.70;2.43;;;6.30;41.10;;;6.41;38.07;96710.53;4950584;28;20055;-37
2022/02/14 06:59:25;;;;;;;7.90;3.40;;;6.20;41.30;;;6.38;38.17;96715.28;4950588;28;20058;-37
2022/02/14 07:01:54;;;;;;;5.63;3.47;;;6.30;41.00;;;6.43;38.18;96718.31;4950092;29;20047;-38
2022/02/14 07:04:21;;;;;;;14.00;7.20;;;6.30;41.40;;;6.42;38.64;96708.72;4950466;29;20391;-39
2022/02/14 07:06:49;;;;;;;20.17;9.10;;;6.30;41.50;;;6.43;38.97;96713.84;4952382;28;20057;-38
2022/02/14 07:09:17;;;;;;;14.97;7.23;;;6.30;41.80;;;6.41;38.39;96715.00;4951255;29;20066;-38
2022/02/14 07:11:45;;;;;;;8.83;5.73;;;6.20;41.80;;;6.41;38.87;96709.72;4950710;28;20081;-44
2022/02/14 07:14:14;;;;;;;35.83;16.40;;;6.30;41.80;;;6.42;38.33;96706.91;4951207;29;20051;-38
2022/02/14 07:16:43;;;;;;;8.40;4.43;;;6.30;41.40;;;6.41;38.63;96715.00;4950058;29;20341;-37
2022/02/14 07:19:11;;;;;;;15.33;7.37;;;6.30;41.70;;;6.41;38.71;96710.53;4951655;29;20392;-38
2022/02/14 07:21:39;;;;;;;9.10;2.90;;;6.30;41.60;;;6.46;38.76;96720.66;4950212;29;20070;-37
2022/02/14 07:24:08;;;;;;;4.57;3.20;;;6.30;41.90;;;6.47;38.21;96725.75;4951608;29;20430;-37
2022/02/14 07:26:36;;;;;;;4.30;2.20;;;6.40;42.00;;;6.49;38.56;96720.31;4949395;29;20051;-38
2022/02/14 07:29:04;;;;;;;5.73;2.53;;;6.40;41.20;;;6.50;38.79;96721.97;4950207;29;20044;-38
2022/02/14 07:31:33;;;;;;;7.03;4.43;;;6.40;41.70;;;6.55;39.39;96717.03;4949873;28;20055;-37
2022/02/14 07:34:02;;;;;;;4.90;2.97;;;6.40;42.20;;;6.56;39.08;96712.59;4950781;29;20051;-38
2022/02/14 07:36:29;;;;;;;4.00;2.40;;;6.40;41.90;;;6.57;38.86;96722.16;4949012;29;20058;-37
2022/02/14 07:38:57;;;;;;;4.67;2.73;;;6.40;42.30;;;6.61;39.23;96721.72;4950887;28;20065;-38
2022/02/14 07:41:25;;;;;;;5.00;2.20;;;6.40;42.60;;;6.65;39.31;96724.84;4950249;29;20086;-37
2022/02/14 07:43:53;;;;;;;6.43;2.53;;;6.50;42.70;;;6.69;39.19;96710.34;4948782;28;20360;-37
2022/02/14 07:46:22;;;;;;;3.23;2.20;;;6.50;42.40;;;6.72;39.33;96719.75;4950506;29;20050;-37
2022/02/14 07:48:49;;;;;;;4.43;2.60;;;6.60;42.30;;;6.75;38.79;96720.28;4948125;29;20051;-37
2022/02/14 07:51:17;;;;;;;4.00;2.60;;;6.60;42.20;;;6.78;39.01;96721.75;4949117;29;20047;-37
2022/02/14 07:53:45;;;;;;;6.87;3.00;;;6.60;42.30;;;6.81;39.58;96716.16;4950034;29;20046;-38
2022/02/14 07:56:14;;;;;;;4.43;2.20;;;6.60;42.60;;;6.79;39.73;96729.53;4950182;29;20043;-36
2022/02/14 07:58:49;;;;;;;3.83;2.47;;;6.60;42.90;;;6.79;38.87;96723.44;4950925;29;20051;-37
2022/02/14 08:01:17;;;;;;;5.85;2.78;;;6.60;42.40;;;6.80;39.71;96717.97;4950067;28;20051;-37
2022/02/14 08:03:45;;;;;;;6.27;2.63;;;6.70;42.90;;;6.84;39.23;96710.53;4949785;29;20066;-38
2022/02/14 08:06:30;;;;;;;6.33;2.70;;;6.70;42.80;;;6.88;39.46;96711.88;4948066;29;20055;-36
2022/02/14 08:08:58;;;;;;;4.93;2.93;;;6.80;42.40;;;6.90;39.14;96713.38;4948779;29;20050;-37
2022/02/14 08:11:26;;;;;;;5.67;2.87;;;6.90;42.40;;;6.93;39.84;96712.22;4949557;29;20063;-37
2022/02/14 08:13:54;;;;;;;5.97;3.40;;;6.90;42.50;;;6.94;39.50;96708.59;4947399;29;20066;-37
2022/02/14 08:16:22;;;;;;;4.43;2.87;;;7.00;42.50;;;7.00;39.53;96710.59;4948870;29;20035;-37
2022/02/14 08:18:50;;;;;;;4.63;2.63;;;6.90;42.80;;;7.02;39.83;96716.56;4950385;29;20045;-37
2022/02/14 08:21:18;;;;;;;3.97;2.43;;;7.00;42.90;;;7.10;39.77;96707.81;4948942;29;20051;-37
2022/02/14 08:23:45;;;;;;;5.50;2.63;;;7.00;42.90;;;7.13;39.59;96706.63;4948165;28;20063;-37
2022/02/14 08:26:13;;;;;;;4.73;2.10;;;7.10;43.20;;;7.19;39.70;96714.78;4948559;29;20065;-37
2022/02/14 08:28:44;;;;;;;4.27;2.67;;;7.10;43.20;;;7.26;40.05;96701.72;4949696;29;20055;-38
2022/02/14 08:31:12;;;;;;;4.43;2.40;;;7.30;43.10;;;7.36;39.55;96704.19;4948645;29;20061;-37
2022/02/14 08:33:40;;;;;;;7.83;2.50;;;7.40;42.90;;;7.44;39.48;96701.56;4949014;28;20051;-37
2022/02/14 08:36:07;;;;;;;6.40;2.90;;;7.40;42.90;;;7.47;39.50;96699.41;4949361;29;20055;-37
2022/02/14 08:38:35;;;;;;;3.53;2.50;;;7.50;42.80;;;7.53;39.72;96702.41;4949946;29;20056;-37
2022/02/14 08:41:04;;;;;;;5.73;2.73;;;7.60;42.80;;;7.58;40.14;96703.56;4948575;29;20254;-36
2022/02/14 08:43:32;;;;;;;3.60;2.33;;;7.60;43.10;;;7.62;39.58;96704.06;4948682;28;20051;-37
2022/02/14 08:46:05;;;;;;;7.60;3.07;;;7.60;43.10;;;7.66;40.26;96703.56;4948150;28;20444;-37
2022/02/14 08:48:33;;;;;;;5.33;2.77;;;7.70;43.50;;;7.71;39.92;96700.41;4958800;28;20061;-37
2022/02/14 08:51:04;;;;;;;3.83;2.87;;;7.70;43.70;;;7.78;40.46;96704.03;4961086;28;20050;-37
2022/02/14 08:53:35;;;;;;;5.97;2.80;;;7.80;44.00;;;7.88;40.26;96706.53;4961429;29;20051;-37
2022/02/14 08:56:06;;;;;;;4.53;2.50;;;7.90;44.00;;;7.93;40.47;96704.22;4960604;28;20047;-37
2022/02/14 08:58:35;;;;;;;5.83;2.97;;;8.00;43.60;;;8.03;40.23;96701.38;4961540;28;20063;-37
2022/02/14 09:01:04;;;;;;;8.30;3.47;;;8.10;44.00;;;8.09;40.37;96700.69;4958093;28;20051;-37
2022/02/14 09:03:34;;;;;;;4.73;2.50;;;8.20;43.90;;;8.16;40.48;96699.03;4959884;28;20055;-37
2022/02/14 09:06:02;;;;;;;4.13;2.30;;;8.30;44.00;;;8.22;40.34;96694.84;4960077;29;20061;-37
2022/02/14 09:08:32;;;;;;;7.07;2.87;;;8.30;43.80;;;8.27;40.24;96697.84;4959499;28;20418;-37
2022/02/14 09:11:00;;;;;;;5.07;2.93;;;8.40;43.60;;;8.31;40.21;96690.38;4960124;29;20336;-37
2022/02/14 09:13:31;;;;;;;4.37;2.40;;;8.40;43.80;;;8.34;40.23;96692.69;4960578;29;20058;-37
2022/02/14 09:16:04;;;;;;;6.23;3.33;;;8.40;43.70;;;8.37;40.09;96684.38;4958237;28;20073;-37
2022/02/14 09:18:35;;;;;;;3.60;2.97;;;8.40;43.70;;;8.40;40.06;96682.22;4957908;28;20345;-37
2022/02/14 09:21:05;;;;;;;6.87;2.63;;;8.40;43.50;;;8.43;40.00;96681.91;4961163;28;20049;-37
2022/02/14 09:23:33;;;;;;;6.33;3.17;;;8.50;43.50;;;8.44;40.20;96683.56;4960241;28;20051;-37
2022/02/14 09:26:01;;;;;;;6.10;2.57;;;8.40;43.50;;;8.49;40.21;96685.69;4959934;28;20061;-37
2022/02/14 09:28:30;;;;;;;3.53;2.33;;;8.50;43.70;;;8.52;40.51;96671.28;4958526;28;20245;-37
2022/02/14 09:30:58;;;;;;;5.00;2.60;;;8.50;43.90;;;8.56;40.50;96676.06;4959423;28;20253;-37
2022/02/14 09:33:25;;;;;;;6.67;2.50;;;8.60;44.10;;;8.58;40.53;96670.56;4958360;28;20364;-37
2022/02/14 09:35:54;;;;;;;5.10;2.80;;;8.60;43.90;;;8.62;40.37;96675.34;4961851;28;20043;-37
2022/02/14 09:38:26;;;;;;;7.63;2.90;;;8.60;43.90;;;8.66;40.31;96670.53;4956170;28;20054;-37
2022/02/14 09:40:55;;;;;;;7.40;3.20;;;8.70;44.10;;;8.68;40.28;96663.22;4963243;28;20363;-37
2022/02/14 09:43:23;;;;;;;5.47;3.77;;;8.70;43.90;;;8.71;40.30;96670.03;4963444;28;20043;-37
2022/02/14 09:45:51;;;;;;;7.43;2.70;;;8.70;44.00;;;8.76;40.30;96675.63;4963779;29;20046;-37
2022/02/14 09:48:20;;;;;;;6.40;2.37;;;8.80;44.00;;;8.78;40.51;96666.53;4961363;28;20047;-37
2022/02/14 09:50:52;;;;;;;;;;;8.80;44.00;;;8.75;40.26;96664.19;4963346;28;20057;-38
2022/02/14 09:53:20;;;;;;;6.03;2.67;;;8.80;43.90;;;8.83;40.63;96669.47;4958496;28;20124;-38
2022/02/14 09:55:49;;;;;;;5.00;2.27;;;8.80;44.30;;;8.90;40.47;96666.09;4963058;28;20039;-38
2022/02/14 09:58:17;;;;;;;5.53;2.50;;;8.90;44.10;;;8.92;40.48;96662.28;4960762;28;20051;-38
2022/02/14 10:00:45;;;;;;;4.00;2.33;;;8.90;44.40;;;8.91;40.36;96665.94;4958763;28;20981;-38
2022/02/14 10:03:18;;;;;;;6.37;2.70;;;8.90;44.20;;;8.92;40.48;96664.94;4963180;29;20057;-38
2022/02/14 10:05:53;;;;;;;4.72;2.22;;;8.90;44.20;;;8.95;40.70;96674.38;4961430;28;20112;-38
2022/02/14 10:08:22;;;;;;;;;;;9.00;44.60;;;8.94;40.53;96670.91;4959254;29;20055;-38
2022/02/14 10:11:12;;;;;;;5.90;2.70;;;9.00;45.10;;;9.02;41.08;96673.50;4955420;29;19927;-38
2022/02/14 10:13:43;;;;;;;5.63;2.57;;;9.00;45.30;;;9.04;41.04;96671.50;4954360;29;20055;-37
2022/02/14 10:16:13;;;;;;;5.53;2.40;;;9.00;45.40;;;9.07;41.37;96670.31;4951446;29;20054;-37
2022/02/14 10:18:42;;;;;;;5.70;2.47;;;9.10;45.50;;;9.09;41.33;96675.44;4952978;29;20051;-35
2022/02/14 10:21:26;;;;;;;7.70;2.80;;;9.10;45.50;;;9.13;41.39;96671.44;4952396;29;20066;-38
2022/02/14 10:24:10;;;;;;;5.20;2.57;;;9.20;45.70;;;9.16;41.52;96671.91;4952396;29;20077;-36
2022/02/14 10:26:42;;;;;;;6.20;2.45;;;9.30;46.00;;;9.22;41.92;96676.53;4952168;29;20058;-37
2022/02/14 10:29:27;;;;;;;7.47;2.70;;;9.30;46.10;;;9.31;41.90;96673.84;4952768;29;20062;-36
2022/02/14 10:31:56;;;;;;;4.83;2.83;;;9.40;46.40;;;9.38;41.87;96672.94;4952013;29;20062;-37
2022/02/14 10:34:39;;;;;;;6.67;2.67;;;9.50;46.10;;;9.38;41.84;96678.25;4951721;29;20070;-37
2022/02/14 10:37:14;;;;;;;7.93;3.20;;;9.60;46.10;;;9.44;42.02;96666.06;4951251;29;20066;-37
2022/02/14 10:39:45;;;;;;;3.77;2.20;;;9.60;46.10;;;9.55;41.90;96672.81;4951429;29;20043;-37